Time;durP1;ratioP1;P1;durP2;ratioP2;P2;SDS_P1;SDS_P2;PMS_P1;PMS_P2;Temp;Humidity;BMP_temperature;BMP_pressure;BME280_temperature;BME280_humidity;BME280_pressure;Samples;Min_cycle;Max_cycle;Signal;HPM_P1;HPM_P2
2021/09/19 00:01:11;;;;;;;3.20;2.20;;;15.30;99.90;;;;;;5084588;28;20423;-39
2021/09/19 00:03:36;;;;;;;3.43;2.30;;;15.30;99.90;;;;;;5085522;28;20568;-39
2021/09/19 00:06:02;;;;;;;3.73;2.20;;;15.30;99.90;;;;;;5085591;28;20663;-39
2021/09/19 00:08:28;;;;;;;2.90;2.50;;;15.30;99.90;;;;;;5085813;28;20204;-41
2021/09/19 00:10:55;;;;;;;2.80;2.60;;;15.30;99.90;;;;;;5084944;28;20484;-41
2021/09/19 00:13:21;;;;;;;3.00;2.80;;;15.40;99.90;;;;;;5080684;28;20227;-42
2021/09/19 00:15:47;;;;;;;2.37;2.10;;;15.30;99.90;;;;;;5081549;28;20415;-39
2021/09/19 00:18:13;;;;;;;2.80;2.30;;;15.30;99.90;;;;;;5085106;28;20199;-40
2021/09/19 00:20:39;;;;;;;2.83;2.63;;;15.30;99.90;;;;;;5085116;28;20388;-38
2021/09/19 00:23:06;;;;;;;2.13;2.03;;;15.20;99.90;;;;;;5085559;28;20924;-38
2021/09/19 00:25:32;;;;;;;2.83;2.63;;;15.20;99.90;;;;;;5085353;28;20430;-40
2021/09/19 00:27:58;;;;;;;3.00;2.70;;;15.20;99.90;;;;;;5079247;28;20517;-39
2021/09/19 00:30:25;;;;;;;2.87;2.63;;;15.10;99.90;;;;;;5079529;28;20435;-38
2021/09/19 00:32:51;;;;;;;3.20;2.90;;;15.00;99.90;;;;;;5085581;28;20458;-39
2021/09/19 00:35:17;;;;;;;3.03;2.73;;;15.00;99.90;;;;;;5085458;28;20499;-42
2021/09/19 00:37:43;;;;;;;3.10;2.87;;;15.00;99.90;;;;;;5087568;28;20192;-42
2021/09/19 00:40:10;;;;;;;2.87;2.60;;;15.00;99.90;;;;;;5088436;28;20428;-39
2021/09/19 00:42:36;;;;;;;3.00;2.80;;;15.00;99.90;;;;;;5084968;28;20449;-39
2021/09/19 00:45:15;;;;;;;3.00;2.80;;;15.00;99.90;;;;;;5080787;28;20802;-41
2021/09/19 00:47:42;;;;;;;5.00;3.27;;;15.00;99.90;;;;;;5086165;28;20422;-41
2021/09/19 00:50:09;;;;;;;3.50;3.30;;;14.90;99.90;;;;;;5088309;28;20794;-38
2021/09/19 00:52:38;;;;;;;3.70;3.30;;;14.90;99.90;;;;;;5088841;28;20651;-41
2021/09/19 00:55:05;;;;;;;4.30;3.90;;;15.00;99.90;;;;;;5088868;28;20423;-39
2021/09/19 00:57:37;;;;;;;3.60;3.30;;;15.00;99.90;;;;;;5085907;28;20465;-39
2021/09/19 01:00:03;;;;;;;3.80;3.50;;;14.90;99.90;;;;;;5081571;28;20897;-39
2021/09/19 01:02:30;;;;;;;3.93;3.63;;;14.90;99.90;;;;;;5088243;28;20453;-38
2021/09/19 01:04:57;;;;;;;4.07;3.77;;;14.80;99.90;;;;;;5088629;28;20427;-40
2021/09/19 01:07:22;;;;;;;3.90;3.60;;;14.80;99.90;;;;;;5088209;28;20933;-40
2021/09/19 01:09:48;;;;;;;3.53;3.30;;;14.80;99.90;;;;;;5086441;28;20491;-39
2021/09/19 01:12:15;;;;;;;4.13;3.77;;;14.90;99.90;;;;;;5088103;28;20523;-40
2021/09/19 01:14:41;;;;;;;4.10;3.80;;;14.80;99.90;;;;;;5077798;28;20441;-38
2021/09/19 01:17:08;;;;;;;3.83;3.53;;;14.80;99.90;;;;;;5084755;28;20804;-39
2021/09/19 01:19:36;;;;;;;3.63;3.33;;;14.70;99.90;;;;;;5087943;28;20535;-42
2021/09/19 01:22:03;;;;;;;3.73;3.43;;;14.80;99.90;;;;;;5088456;28;20480;-39
2021/09/19 01:24:29;;;;;;;3.80;3.50;;;14.70;99.90;;;;;;5088033;28;20461;-39
2021/09/19 01:26:55;;;;;;;4.20;3.47;;;14.70;99.90;;;;;;5088166;28;20975;-38
2021/09/19 01:29:21;;;;;;;3.87;3.57;;;14.60;99.90;;;;;;5074716;28;20241;-39
2021/09/19 01:31:49;;;;;;;3.63;3.43;;;14.70;99.90;;;;;;5087806;28;20454;-42
2021/09/19 01:34:15;;;;;;;3.50;3.20;;;14.60;99.90;;;;;;5084916;28;20421;-40
2021/09/19 01:36:40;;;;;;;3.13;2.80;;;14.50;99.90;;;;;;5088144;28;20427;-39
2021/09/19 01:39:08;;;;;;;3.53;3.23;;;14.50;99.90;;;;;;5087624;28;21333;-41
2021/09/19 01:41:35;;;;;;;3.30;3.00;;;14.40;99.90;;;;;;5087661;28;20560;-40
2021/09/19 01:44:03;;;;;;;3.57;3.27;;;14.40;99.90;;;;;;5075437;28;20477;-42
2021/09/19 01:46:29;;;;;;;3.80;3.50;;;14.40;99.90;;;;;;5081952;28;20437;-41
2021/09/19 01:48:55;;;;;;;4.10;3.80;;;14.40;99.90;;;;;;5086095;28;20940;-42
2021/09/19 01:51:21;;;;;;;3.87;3.50;;;14.50;99.90;;;;;;5087964;28;20192;-40
2021/09/19 01:53:48;;;;;;;3.70;3.40;;;14.50;99.90;;;;;;5087670;28;20433;-38
2021/09/19 01:56:14;;;;;;;3.60;3.30;;;14.50;99.90;;;;;;5087671;28;20502;-41
2021/09/19 01:58:42;;;;;;;3.70;3.40;;;14.50;99.90;;;;;;5080326;28;20435;-40
2021/09/19 02:01:07;;;;;;;4.40;4.10;;;14.40;99.90;;;;;;5080024;28;20189;-39
2021/09/19 02:03:36;;;;;;;4.50;4.10;;;14.40;99.90;;;;;;5087684;28;20919;-40
2021/09/19 02:06:02;;;;;;;4.53;4.10;;;14.30;99.90;;;;;;5087848;28;20187;-39
2021/09/19 02:08:28;;;;;;;4.17;3.87;;;14.40;99.90;;;;;;5087453;28;20442;-38
2021/09/19 02:10:54;;;;;;;5.00;4.53;;;14.40;99.90;;;;;;5086698;28;20229;-39
2021/09/19 02:13:20;;;;;;;3.73;3.43;;;14.40;99.90;;;;;;5081978;28;20772;-38
2021/09/19 02:15:45;;;;;;;3.80;3.50;;;14.40;99.90;;;;;;5079498;28;20889;-42
2021/09/19 02:18:11;;;;;;;4.53;4.13;;;14.40;99.90;;;;;;5085919;28;20333;-38
2021/09/19 02:20:37;;;;;;;4.83;3.80;;;14.30;99.90;;;;;;5086824;28;20188;-38
2021/09/19 02:23:02;;;;;;;4.27;3.87;;;14.30;99.90;;;;;;5086970;28;20576;-40
2021/09/19 02:25:28;;;;;;;3.63;3.33;;;14.30;99.90;;;;;;5087011;28;20192;-39
2021/09/19 02:27:54;;;;;;;4.27;3.87;;;14.20;99.90;;;;;;5087092;28;20197;-39
2021/09/19 02:30:19;;;;;;;3.70;3.40;;;14.10;99.90;;;;;;5075498;28;20194;-41
2021/09/19 02:32:45;;;;;;;4.50;4.10;;;14.00;99.90;;;;;;5086942;28;20207;-40
2021/09/19 02:35:12;;;;;;;3.90;3.53;;;14.00;99.90;;;;;;5086995;28;20493;-40
2021/09/19 02:37:40;;;;;;;4.37;3.43;;;14.10;99.90;;;;;;5086405;28;20192;-39
2021/09/19 02:40:07;;;;;;;4.40;3.97;;;14.10;99.90;;;;;;5086187;28;20599;-42
2021/09/19 02:42:33;;;;;;;3.87;3.57;;;14.10;99.90;;;;;;5086401;28;20457;-39
2021/09/19 02:44:59;;;;;;;4.57;4.17;;;14.10;99.90;;;;;;5076628;28;20732;-39
2021/09/19 02:47:25;;;;;;;6.43;4.30;;;14.00;99.90;;;;;;5086470;28;20185;-41
2021/09/19 02:49:51;;;;;;;4.43;4.03;;;14.00;99.90;;;;;;5086280;28;20505;-42
2021/09/19 02:52:16;;;;;;;4.40;4.00;;;13.80;99.90;;;;;;5086144;28;20240;-40
2021/09/19 02:54:42;;;;;;;4.63;4.23;;;13.70;99.90;;;;;;5087018;28;20629;-41
2021/09/19 02:57:07;;;;;;;5.10;4.60;;;13.70;99.90;;;;;;5086235;28;20635;-40
2021/09/19 02:59:33;;;;;;;5.93;4.47;;;13.60;99.90;;;;;;5074073;28;20541;-40
2021/09/19 03:01:59;;;;;;;4.50;4.10;;;13.70;99.90;;;;;;5085893;28;20223;-41
2021/09/19 03:04:24;;;;;;;5.20;4.80;;;13.60;99.90;;;;;;5086373;28;20279;-42
2021/09/19 03:06:50;;;;;;;4.30;4.00;;;13.60;99.90;;;;;;5085929;28;20246;-38
2021/09/19 03:09:16;;;;;;;4.17;3.87;;;13.70;99.90;;;;;;5085501;28;20247;-40
2021/09/19 03:11:42;;;;;;;5.03;4.53;;;13.60;99.90;;;;;;5085985;28;20212;-40
2021/09/19 03:14:08;;;;;;;4.70;4.30;;;13.60;99.90;;;;;;5079662;28;20191;-41
2021/09/19 03:16:33;;;;;;;5.80;4.20;;;13.70;99.90;;;;;;5084249;28;20418;-38
2021/09/19 03:18:59;;;;;;;4.60;4.20;;;13.70;99.90;;;;;;5085831;28;20215;-38
2021/09/19 03:21:25;;;;;;;3.70;3.37;;;13.80;99.90;;;;;;5085815;28;20196;-40
2021/09/19 03:23:50;;;;;;;5.90;5.40;;;13.70;99.90;;;;;;5086121;28;20529;-43
2021/09/19 03:26:16;;;;;;;5.20;4.70;;;13.70;99.90;;;;;;5086217;28;20534;-42
2021/09/19 03:28:42;;;;;;;4.97;4.47;;;13.60;99.90;;;;;;5084250;28;20628;-39
2021/09/19 03:31:07;;;;;;;6.83;4.77;;;13.60;99.90;;;;;;5082163;28;20222;-41
2021/09/19 03:33:33;;;;;;;5.23;4.57;;;13.60;99.90;;;;;;5084312;28;20559;-41
2021/09/19 03:35:59;;;;;;;4.60;4.20;;;13.50;99.90;;;;;;5085792;28;20196;-39
2021/09/19 03:38:24;;;;;;;4.93;4.53;;;13.50;99.90;;;;;;5085598;28;20642;-39
2021/09/19 03:40:50;;;;;;;5.33;4.93;;;13.60;99.90;;;;;;5085276;28;20191;-38
2021/09/19 03:43:15;;;;;;;4.10;3.70;;;13.70;99.90;;;;;;5085902;28;20262;-38
2021/09/19 03:45:41;;;;;;;4.10;3.77;;;13.80;99.90;;;;;;5071051;28;20284;-42
2021/09/19 03:48:09;;;;;;;6.43;5.17;;;13.60;99.90;;;;;;5086168;28;20196;-39
2021/09/19 03:50:35;;;;;;;5.07;4.67;;;13.60;99.90;;;;;;5084530;28;20216;-40
2021/09/19 03:53:01;;;;;;;5.10;4.70;;;13.60;99.90;;;;;;5085575;28;20556;-40
2021/09/19 03:55:27;;;;;;;5.17;4.67;;;13.50;99.90;;;;;;5085696;28;20487;-40
2021/09/19 03:57:53;;;;;;;5.80;4.97;;;13.60;99.90;;;;;;5085647;28;20419;-39
2021/09/19 04:00:19;;;;;;;6.83;5.20;;;13.70;99.90;;;;;;5075580;28;20784;-41
2021/09/19 04:02:45;;;;;;;4.73;4.33;;;13.70;99.90;;;;;;5085380;28;20607;-39
2021/09/19 04:05:11;;;;;;;4.57;4.17;;;13.70;99.90;;;;;;5084975;28;20450;-43
2021/09/19 04:07:38;;;;;;;5.00;4.30;;;13.80;99.90;;;;;;5085547;28;20211;-40
2021/09/19 04:10:05;;;;;;;4.83;4.43;;;13.80;99.90;;;;;;5084863;28;21004;-39
2021/09/19 04:12:31;;;;;;;5.20;4.80;;;13.80;99.90;;;;;;5087426;28;20971;-40
2021/09/19 04:14:57;;;;;;;5.40;4.90;;;13.80;99.90;;;;;;5081876;28;20521;-38
2021/09/19 04:17:23;;;;;;;7.97;5.60;;;13.70;99.90;;;;;;5084389;28;20429;-40
2021/09/19 04:19:49;;;;;;;5.43;5.03;;;13.60;99.90;;;;;;5088595;28;20223;-39
2021/09/19 04:22:14;;;;;;;5.80;5.20;;;13.60;99.90;;;;;;5089755;28;20917;-39
2021/09/19 04:24:40;;;;;;;5.10;4.67;;;13.60;99.90;;;;;;5089311;28;20187;-41
2021/09/19 04:27:06;;;;;;;5.90;5.37;;;13.60;99.90;;;;;;5089360;28;20456;-40
2021/09/19 04:29:34;;;;;;;6.37;5.70;;;13.60;99.90;;;;;;5082630;28;20189;-38
2021/09/19 04:32:01;;;;;;;5.87;5.37;;;13.70;99.90;;;;;;5083833;28;20489;-39
2021/09/19 04:34:27;;;;;;;5.37;4.90;;;13.70;99.90;;;;;;5088933;28;20667;-39
2021/09/19 04:36:52;;;;;;;5.83;5.33;;;13.60;99.90;;;;;;5089245;28;20882;-41
2021/09/19 04:39:18;;;;;;;6.30;5.70;;;13.60;99.90;;;;;;5088600;28;20418;-43
2021/09/19 04:41:44;;;;;;;6.00;5.50;;;13.60;99.90;;;;;;5088934;28;20204;-39
2021/09/19 04:44:09;;;;;;;5.73;5.00;;;13.60;99.90;;;;;;5086229;28;20257;-42
2021/09/19 04:46:35;;;;;;;6.00;5.40;;;13.50;99.90;;;;;;5084209;28;20231;-41
2021/09/19 04:49:01;;;;;;;5.70;5.20;;;13.50;99.90;;;;;;5088069;28;20588;-38
2021/09/19 04:51:27;;;;;;;6.27;5.67;;;13.50;99.90;;;;;;5088870;28;20573;-39
2021/09/19 04:53:52;;;;;;;6.50;5.80;;;13.60;99.90;;;;;;5088691;28;20615;-39
2021/09/19 04:56:18;;;;;;;6.80;6.10;;;13.50;99.90;;;;;;5088936;28;20350;-42
2021/09/19 04:58:44;;;;;;;6.37;5.77;;;13.50;99.90;;;;;;5088740;28;20200;-40
2021/09/19 05:01:09;;;;;;;5.90;5.40;;;13.60;99.90;;;;;;5078920;28;20666;-41
2021/09/19 05:03:35;;;;;;;6.50;5.80;;;13.60;99.90;;;;;;5087983;28;20275;-42
2021/09/19 05:06:01;;;;;;;6.60;5.87;;;13.50;99.90;;;;;;5087247;28;20249;-41
2021/09/19 05:08:27;;;;;;;5.67;5.20;;;13.50;99.90;;;;;;5088554;28;20212;-41
2021/09/19 05:10:53;;;;;;;5.53;5.03;;;13.40;99.90;;;;;;5088020;28;20785;-38
2021/09/19 05:13:18;;;;;;;6.27;5.60;;;13.40;99.90;;;;;;5088645;28;20303;-39
2021/09/19 05:15:44;;;;;;;6.00;5.40;;;13.40;99.90;;;;;;5077837;28;20553;-38
2021/09/19 05:18:11;;;;;;;6.80;5.50;;;13.50;99.90;;;;;;5087835;28;20215;-40
2021/09/19 05:20:37;;;;;;;5.83;5.33;;;13.60;99.90;;;;;;5088052;28;20315;-39
2021/09/19 05:23:03;;;;;;;6.10;5.50;;;13.50;99.90;;;;;;5087460;28;20465;-43
2021/09/19 05:25:29;;;;;;;5.70;4.90;;;13.50;99.90;;;;;;5088172;28;20198;-41
2021/09/19 05:27:54;;;;;;;6.80;5.23;;;13.40;99.90;;;;;;5087999;28;20521;-40
2021/09/19 05:30:21;;;;;;;6.00;5.13;;;13.40;99.90;;;;;;5080882;28;20526;-40
2021/09/19 05:32:48;;;;;;;6.33;5.73;;;13.30;99.90;;;;;;5086128;28;20212;-39
2021/09/19 05:35:13;;;;;;;5.40;4.90;;;13.30;99.90;;;;;;5088047;28;20418;-40
2021/09/19 05:37:39;;;;;;;5.07;4.67;;;13.40;99.90;;;;;;5088702;28;20415;-40
2021/09/19 05:40:08;;;;;;;6.13;5.53;;;13.40;99.90;;;;;;5085997;28;20173;-41
2021/09/19 05:42:34;;;;;;;5.60;5.10;;;13.40;99.90;;;;;;5088022;28;20426;-39
2021/09/19 05:45:00;;;;;;;5.53;5.03;;;13.50;99.90;;;;;;5081406;28;20419;-39
2021/09/19 05:47:26;;;;;;;6.30;5.70;;;13.40;99.90;;;;;;5085514;28;20425;-39
2021/09/19 05:49:51;;;;;;;5.60;5.10;;;13.40;99.90;;;;;;5086791;28;20567;-41
2021/09/19 05:52:17;;;;;;;6.30;5.77;;;13.50;99.90;;;;;;5088133;28;20212;-41
2021/09/19 05:54:43;;;;;;;5.33;4.83;;;13.60;99.90;;;;;;5087792;28;20180;-39
2021/09/19 05:57:08;;;;;;;6.40;5.60;;;13.60;99.90;;;;;;5087725;28;20562;-42
2021/09/19 05:59:34;;;;;;;5.77;5.27;;;13.60;99.90;;;;;;5085539;28;20187;-41
2021/09/19 06:01:59;;;;;;;5.83;5.10;;;13.70;99.90;;;;;;5080001;28;20459;-38
2021/09/19 06:04:25;;;;;;;6.90;5.80;;;13.70;99.90;;;;;;5087583;28;20224;-38
2021/09/19 06:06:51;;;;;;;8.03;5.60;;;13.80;99.90;;;;;;5087778;28;20651;-40
2021/09/19 06:09:17;;;;;;;6.10;5.50;;;13.70;99.90;;;;;;5086773;28;20211;-41
2021/09/19 06:11:42;;;;;;;7.00;5.10;;;13.70;99.90;;;;;;5087450;28;20211;-39
2021/09/19 06:14:09;;;;;;;6.00;5.40;;;13.90;99.90;;;;;;5087524;28;20240;-39
2021/09/19 06:16:35;;;;;;;6.00;5.07;;;13.90;99.90;;;;;;5074537;28;20335;-39
2021/09/19 06:19:02;;;;;;;5.40;4.97;;;13.90;99.90;;;;;;5083340;28;20422;-40
2021/09/19 06:21:28;;;;;;;5.70;5.20;;;14.00;99.90;;;;;;5087095;28;20967;-39
2021/09/19 06:23:53;;;;;;;5.13;4.73;;;14.10;99.90;;;;;;5087356;28;20750;-39
2021/09/19 06:26:19;;;;;;;5.90;5.30;;;14.20;99.90;;;;;;5087431;28;20177;-39
2021/09/19 06:28:45;;;;;;;6.60;5.13;;;14.30;99.90;;;;;;5085866;28;20263;-39
2021/09/19 06:31:11;;;;;;;5.93;5.33;;;14.30;99.90;;;;;;5075481;28;20660;-40
2021/09/19 06:33:37;;;;;;;5.70;5.13;;;14.40;99.90;;;;;;5083791;28;20507;-39
2021/09/19 06:36:03;;;;;;;4.93;4.53;;;14.50;99.90;;;;;;5085079;28;20189;-42
2021/09/19 06:38:29;;;;;;;5.00;4.50;;;14.50;99.90;;;;;;5087067;28;20780;-42
2021/09/19 06:40:54;;;;;;;6.53;4.70;;;14.60;99.90;;;;;;5085953;28;20419;-40
2021/09/19 06:43:20;;;;;;;5.40;4.90;;;14.70;99.90;;;;;;5087405;28;20191;-42
2021/09/19 06:45:46;;;;;;;5.43;4.93;;;14.70;99.90;;;;;;5079221;28;20204;-40
2021/09/19 06:48:11;;;;;;;6.63;5.93;;;14.70;99.90;;;;;;5080702;28;20185;-41
2021/09/19 06:50:37;;;;;;;5.03;4.33;;;14.80;99.90;;;;;;5085979;28;20180;-39
2021/09/19 06:53:03;;;;;;;4.77;4.37;;;14.70;99.90;;;;;;5086645;28;20303;-39
2021/09/19 06:55:29;;;;;;;6.27;4.80;;;14.70;99.90;;;;;;5086669;28;20265;-40
2021/09/19 06:57:59;;;;;;;4.83;4.43;;;14.70;99.90;;;;;;5085899;28;20227;-40
2021/09/19 07:00:25;;;;;;;5.17;4.70;;;14.70;99.90;;;;;;5082032;28;20763;-40
2021/09/19 07:02:51;;;;;;;5.00;4.50;;;14.70;99.90;;;;;;5082915;28;20502;-38
2021/09/19 07:05:17;;;;;;;5.47;4.33;;;14.70;99.90;;;;;;5085236;28;20418;-40
2021/09/19 07:07:43;;;;;;;5.70;5.20;;;14.70;99.90;;;;;;5086233;28;20823;-39
2021/09/19 07:10:10;;;;;;;5.40;4.90;;;14.70;99.90;;;;;;5078733;28;20770;-39
2021/09/19 07:12:36;;;;;;;5.83;4.87;;;14.80;99.90;;;;;;5081835;28;20707;-38
2021/09/19 07:15:04;;;;;;;5.97;5.40;;;14.80;99.90;;;;;;5084614;28;20478;-39
2021/09/19 07:17:30;;;;;;;5.80;5.30;;;14.80;99.90;;;;;;5074751;28;20517;-38
2021/09/19 07:19:56;;;;;;;4.93;4.53;;;14.90;99.90;;;;;;5085658;28;20536;-39
2021/09/19 07:22:22;;;;;;;6.50;5.40;;;15.00;99.90;;;;;;5084805;28;20188;-41
2021/09/19 07:24:48;;;;;;;5.70;5.10;;;15.10;99.90;;;;;;5085486;28;20504;-39
2021/09/19 07:27:13;;;;;;;5.47;4.97;;;15.20;99.90;;;;;;5084999;28;20762;-40
2021/09/19 07:29:39;;;;;;;4.60;4.20;;;15.30;99.90;;;;;;5085060;28;20781;-39
2021/09/19 07:32:07;;;;;;;6.00;5.10;;;15.30;99.90;;;;;;5069654;28;20240;-41
2021/09/19 07:34:34;;;;;;;5.27;4.77;;;15.40;99.90;;;;;;5078567;28;20199;-42
2021/09/19 07:37:00;;;;;;;5.40;4.90;;;15.40;99.90;;;;;;5083632;28;20431;-42
2021/09/19 07:39:26;;;;;;;4.70;4.30;;;15.40;99.90;;;;;;5080190;28;20423;-40
2021/09/19 07:41:55;;;;;;;4.60;4.20;;;15.40;99.90;;;;;;5081737;28;20434;-40
2021/09/19 07:44:22;;;;;;;4.80;4.30;;;15.40;99.90;;;;;;5084996;28;20433;-42
2021/09/19 07:46:49;;;;;;;5.13;4.30;;;15.40;99.90;;;;;;5078012;28;20435;-39
2021/09/19 07:49:16;;;;;;;4.30;3.67;;;15.40;99.90;;;;;;5084053;28;20596;-39
2021/09/19 07:51:42;;;;;;;4.37;3.97;;;15.40;99.90;;;;;;5084706;28;20466;-40
2021/09/19 07:54:08;;;;;;;5.50;4.73;;;15.50;99.90;;;;;;5084711;28;20448;-39
2021/09/19 07:56:34;;;;;;;5.40;4.90;;;15.50;99.90;;;;;;5084612;28;20471;-39
2021/09/19 07:59:00;;;;;;;5.27;4.77;;;15.60;99.90;;;;;;5083671;28;20418;-40
2021/09/19 08:01:25;;;;;;;4.33;3.93;;;15.50;99.90;;;;;;5057618;28;20216;-39
2021/09/19 08:03:51;;;;;;;4.33;3.93;;;15.50;99.90;;;;;;5084254;28;20196;-41
2021/09/19 08:06:18;;;;;;;4.90;4.50;;;15.50;99.90;;;;;;5084532;28;20184;-41
2021/09/19 08:08:44;;;;;;;4.50;3.97;;;15.60;99.90;;;;;;5084792;28;20218;-42
2021/09/19 08:11:10;;;;;;;4.37;3.97;;;15.60;99.90;;;;;;5083158;28;20501;-39
2021/09/19 08:13:36;;;;;;;4.80;4.40;;;15.70;99.90;;;;;;5077246;28;20478;-39
2021/09/19 08:16:02;;;;;;;4.93;4.50;;;15.80;99.90;;;;;;5078973;28;20473;-39
2021/09/19 08:18:28;;;;;;;4.50;4.10;;;15.80;99.90;;;;;;5079572;28;20901;-45
2021/09/19 08:20:53;;;;;;;5.47;4.60;;;15.90;99.90;;;;;;5079739;28;20857;-39
2021/09/19 08:23:19;;;;;;;4.57;4.17;;;15.90;99.90;;;;;;5085743;28;20710;-41
2021/09/19 08:25:45;;;;;;;5.00;4.50;;;16.00;99.90;;;;;;5082615;28;20203;-41
2021/09/19 08:28:10;;;;;;;5.67;4.67;;;15.90;99.90;;;;;;5080453;28;20188;-39
2021/09/19 08:30:36;;;;;;;5.20;4.70;;;16.00;99.90;;;;;;5083157;28;20221;-41
2021/09/19 08:33:02;;;;;;;4.73;4.33;;;16.00;99.90;;;;;;5072638;28;21104;-40
2021/09/19 08:35:28;;;;;;;5.07;4.60;;;16.00;99.90;;;;;;5084321;28;20216;-40
2021/09/19 08:37:53;;;;;;;4.87;4.47;;;16.10;99.90;;;;;;5070705;28;20199;-42
2021/09/19 08:40:19;;;;;;;4.57;4.17;;;16.10;99.90;;;;;;5082154;28;20663;-40
2021/09/19 08:42:49;;;;;;;5.07;4.57;;;16.20;99.90;;;;;;5084496;28;20200;-42
2021/09/19 08:45:15;;;;;;;4.73;4.23;;;16.20;99.90;;;;;;5084422;28;20525;-38
2021/09/19 08:47:41;;;;;;;5.67;4.67;;;16.30;99.90;;;;;;5071413;28;20518;-39
2021/09/19 08:50:10;;;;;;;5.00;4.50;;;16.30;99.90;;;;;;5083600;28;20235;-42
2021/09/19 08:52:37;;;;;;;4.83;4.33;;;16.30;99.90;;;;;;5083812;28;20302;-39
2021/09/19 08:55:04;;;;;;;4.93;4.43;;;16.30;99.90;;;;;;5084126;28;21283;-41
2021/09/19 08:57:30;;;;;;;4.67;4.27;;;16.30;99.90;;;;;;5083765;28;20506;-44
2021/09/19 09:00:01;;;;;;;5.13;4.70;;;16.40;99.90;;;;;;5086751;28;20884;-45
2021/09/19 09:02:27;;;;;;;5.50;5.00;;;16.40;99.90;;;;;;5080245;28;20239;-43
2021/09/19 09:04:58;;;;;;;5.33;4.40;;;16.40;99.90;;;;;;5086189;28;20462;-40
2021/09/19 09:07:24;;;;;;;5.03;4.43;;;16.50;99.90;;;;;;5085871;28;20626;-45
2021/09/19 09:09:56;;;;;;;5.77;4.90;;;16.50;99.90;;;;;;5086395;28;20442;-41
2021/09/19 09:12:23;;;;;;;5.50;5.00;;;16.60;99.90;;;;;;5085196;28;20793;-42
2021/09/19 09:14:54;;;;;;;5.40;4.90;;;16.60;99.90;;;;;;5083441;28;20427;-42
2021/09/19 09:17:23;;;;;;;5.10;4.60;;;16.70;99.90;;;;;;5076849;28;20426;-42
2021/09/19 09:19:51;;;;;;;5.67;5.00;;;16.70;99.90;;;;;;5085716;28;20540;-42
2021/09/19 09:22:29;;;;;;;6.50;5.73;;;16.70;99.90;;;;;;5086033;28;20460;-43
2021/09/19 09:25:17;;;;;;;5.40;4.90;;;16.80;99.90;;;;;;5085785;28;20414;-42
2021/09/19 09:27:48;;;;;;;6.30;5.70;;;16.80;99.90;;;;;;5084217;28;20937;-43
2021/09/19 09:30:21;;;;;;;6.07;5.53;;;16.90;99.90;;;;;;5085333;28;20418;-40
2021/09/19 09:32:51;;;;;;;5.93;5.20;;;16.90;99.90;;;;;;5078338;28;20584;-41
2021/09/19 09:35:17;;;;;;;5.20;4.70;;;17.00;99.90;;;;;;5085925;28;20423;-45
2021/09/19 09:37:44;;;;;;;5.50;5.00;;;17.00;99.90;;;;;;5086024;28;20419;-39
2021/09/19 09:40:30;;;;;;;6.10;5.47;;;17.00;99.90;;;;;;5085254;28;20941;-42
2021/09/19 09:43:12;;;;;;;6.20;5.20;;;17.00;99.90;;;;;;5085435;28;20734;-42
2021/09/19 09:45:43;;;;;;;6.10;5.50;;;17.10;99.90;;;;;;5085866;28;20430;-41
2021/09/19 09:48:38;;;;;;;7.63;5.60;;;17.10;99.90;;;;;;5080921;28;20452;-40
2021/09/19 09:51:18;;;;;;;5.67;5.17;;;17.10;99.90;;;;;;5083115;28;20429;-43
2021/09/19 09:53:44;;;;;;;6.57;5.30;;;17.20;99.90;;;;;;5083701;28;20465;-41
2021/09/19 09:56:10;;;;;;;6.73;5.83;;;17.20;99.90;;;;;;5085516;28;20685;-44
2021/09/19 09:58:35;;;;;;;5.30;4.80;;;17.30;99.90;;;;;;5085500;28;20422;-41
2021/09/19 10:01:04;;;;;;;5.67;5.17;;;17.30;99.90;;;;;;5085544;28;20479;-43
2021/09/19 10:03:30;;;;;;;5.47;4.97;;;17.40;99.90;;;;;;5076868;28;20419;-43
2021/09/19 10:05:56;;;;;;;5.97;5.40;;;17.40;99.90;;;;;;5086529;28;20654;-42
2021/09/19 10:08:23;;;;;;;6.30;5.70;;;17.50;99.90;;;;;;5086656;28;20798;-42
2021/09/19 10:10:49;;;;;;;6.10;5.53;;;17.40;99.90;;;;;;5085024;28;20701;-45
2021/09/19 10:13:15;;;;;;;5.63;5.10;;;17.50;99.90;;;;;;5086569;28;20466;-42
2021/09/19 10:15:42;;;;;;;5.87;5.37;;;17.60;99.90;;;;;;5085347;28;20192;-41
2021/09/19 10:18:09;;;;;;;6.80;5.50;;;17.60;99.90;;;;;;5072272;28;20936;-40
2021/09/19 10:20:41;;;;;;;6.40;5.80;;;17.70;99.90;;;;;;5080628;28;20419;-39
2021/09/19 10:23:15;;;;;;;5.50;5.00;;;17.70;99.90;;;;;;5086516;28;20484;-40
2021/09/19 10:25:46;;;;;;;6.70;5.47;;;17.70;99.90;;;;;;5086099;28;20430;-41
2021/09/19 10:28:19;;;;;;;6.20;5.63;;;17.80;99.90;;;;;;5073469;28;20418;-42
2021/09/19 10:31:17;;;;;;;5.47;4.97;;;17.80;99.90;;;;;;5085091;28;20425;-42
2021/09/19 10:33:43;;;;;;;7.00;5.50;;;17.80;99.90;;;;;;5071872;28;20478;-39
2021/09/19 10:36:11;;;;;;;5.60;5.10;;;17.90;99.90;;;;;;5085871;28;20422;-39
2021/09/19 10:38:40;;;;;;;5.87;5.37;;;17.90;99.90;;;;;;5086535;28;20279;-41
2021/09/19 10:41:25;;;;;;;6.80;6.07;;;17.90;99.90;;;;;;5084942;28;20429;-39
2021/09/19 10:43:59;;;;;;;6.37;5.77;;;18.00;99.90;;;;;;5085984;28;20922;-42
2021/09/19 10:46:34;;;;;;;4.87;4.47;;;18.00;99.90;;;;;;5085688;28;20429;-40
2021/09/19 10:49:19;;;;;;;5.63;5.13;;;18.00;99.90;;;;;;5073964;28;20429;-40
2021/09/19 10:51:59;;;;;;;5.33;4.87;;;18.00;99.90;;;;;;5085001;28;20426;-39
2021/09/19 10:54:44;;;;;;;5.60;5.10;;;18.00;99.90;;;;;;5085854;28;20428;-38
2021/09/19 10:57:22;;;;;;;6.17;5.57;;;18.00;99.90;;;;;;5085837;28;20418;-39
2021/09/19 11:00:17;;;;;;;5.30;4.80;;;18.00;99.90;;;;;;5085149;28;20419;-41
2021/09/19 11:02:59;;;;;;;4.70;4.20;;;18.00;99.90;;;;;;5079360;28;20465;-39
2021/09/19 11:05:28;;;;;;;5.83;5.33;;;18.00;99.90;;;;;;5085591;28;20410;-39
2021/09/19 11:08:14;;;;;;;5.60;5.10;;;18.00;99.90;;;;;;5085174;28;20470;-38
2021/09/19 11:10:45;;;;;;;6.93;5.60;;;18.00;99.90;;;;;;5085155;28;20499;-39
2021/09/19 11:13:26;;;;;;;6.00;4.67;;;17.90;99.90;;;;;;5085461;28;20600;-39
2021/09/19 11:16:22;;;;;;;5.50;4.70;;;18.00;99.90;;;;;;5084266;28;20446;-41
2021/09/19 11:19:03;;;;;;;5.00;4.60;;;18.00;99.90;;;;;;5075701;28;21007;-40
2021/09/19 11:21:36;;;;;;;5.23;4.73;;;17.90;99.90;;;;;;5084949;28;20475;-38
2021/09/19 11:24:12;;;;;;;5.10;4.70;;;17.90;99.90;;;;;;5085330;28;20541;-39
2021/09/19 11:26:50;;;;;;;4.63;4.23;;;17.90;99.90;;;;;;5085353;28;20428;-41
2021/09/19 11:29:24;;;;;;;5.10;4.17;;;17.90;99.90;;;;;;5084383;28;20437;-39
2021/09/19 11:31:50;;;;;;;4.37;4.00;;;18.00;99.90;;;;;;5079458;28;20426;-38
2021/09/19 11:34:20;;;;;;;3.40;3.10;;;18.00;99.90;;;;;;5070006;28;20430;-39
2021/09/19 11:36:49;;;;;;;4.20;3.60;;;18.00;99.90;;;;;;5085303;28;20414;-39
2021/09/19 11:39:17;;;;;;;7.40;4.03;;;18.00;99.90;;;;;;5084288;28;20450;-39
2021/09/19 11:41:43;;;;;;;3.00;2.80;;;18.10;99.90;;;;;;5078089;28;20486;-39
2021/09/19 11:44:12;;;;;;;3.80;3.50;;;18.00;99.90;;;;;;5081982;28;20406;-41
2021/09/19 11:46:48;;;;;;;3.57;3.20;;;18.00;99.90;;;;;;5084821;28;20505;-39
2021/09/19 11:49:16;;;;;;;2.53;2.33;;;18.00;99.90;;;;;;5075121;28;20430;-38
2021/09/19 11:51:42;;;;;;;2.00;1.80;;;18.00;99.90;;;;;;5081302;28;20675;-39
2021/09/19 11:54:12;;;;;;;1.80;1.70;;;18.00;99.90;;;;;;5082124;28;20417;-38
2021/09/19 11:56:41;;;;;;;2.10;1.90;;;17.90;99.90;;;;;;5084218;28;20766;-39
2021/09/19 11:59:11;;;;;;;1.67;1.57;;;18.00;99.90;;;;;;5082957;28;20849;-39
2021/09/19 12:01:39;;;;;;;2.07;1.87;;;17.90;99.90;;;;;;5084481;28;20426;-41
2021/09/19 12:04:08;;;;;;;2.00;1.90;;;18.00;99.90;;;;;;5076644;28;20964;-42
2021/09/19 12:06:34;;;;;;;1.90;1.70;;;17.90;99.90;;;;;;5084074;28;20900;-39
2021/09/19 12:09:00;;;;;;;2.10;1.90;;;18.00;99.90;;;;;;5084114;28;20438;-39
2021/09/19 12:12:10;;;;;;;1.80;1.70;;;17.90;99.90;;;;;;5084637;28;20497;-40
2021/09/19 12:14:47;;;;;;;1.70;1.60;;;17.90;99.90;;;;;;5079660;28;20786;-39
2021/09/19 12:17:14;;;;;;;2.30;1.70;;;17.90;99.90;;;;;;5078206;28;20451;-41
2021/09/19 12:19:44;;;;;;;1.77;1.67;;;17.90;99.90;;;;;;5077094;28;20510;-38
2021/09/19 12:22:17;;;;;;;2.20;2.00;;;17.80;99.90;;;;;;5084419;28;20430;-39
2021/09/19 12:24:43;;;;;;;2.33;2.13;;;17.80;99.90;;;;;;5085177;28;20804;-41
2021/09/19 12:27:15;;;;;;;1.70;1.60;;;17.80;99.90;;;;;;5083343;28;20415;-38
2021/09/19 12:29:42;;;;;;;2.00;1.80;;;17.90;99.90;;;;;;5083681;28;20421;-39
2021/09/19 12:32:08;;;;;;;1.93;1.80;;;17.90;99.90;;;;;;5084406;28;21043;-39
2021/09/19 12:34:34;;;;;;;1.73;1.60;;;17.90;99.90;;;;;;5077762;28;20420;-39
2021/09/19 12:37:00;;;;;;;2.13;1.90;;;17.90;99.90;;;;;;5088089;28;20424;-39
2021/09/19 12:39:31;;;;;;;2.07;1.87;;;17.90;99.90;;;;;;5087774;28;20184;-41
2021/09/19 12:42:03;;;;;;;2.00;1.87;;;18.00;99.90;;;;;;5088009;28;20185;-40
2021/09/19 12:44:32;;;;;;;2.30;2.10;;;18.00;99.90;;;;;;5075550;28;20499;-40
2021/09/19 12:47:01;;;;;;;2.87;2.00;;;18.00;99.90;;;;;;5088054;28;20414;-39
2021/09/19 12:49:29;;;;;;;3.27;2.20;;;18.10;99.90;;;;;;5075570;28;20485;-45
2021/09/19 12:52:07;;;;;;;3.13;2.20;;;18.10;99.90;;;;;;5087493;28;20462;-40